createdAt,value
2023-04-05T00:01:21.104Z,1025.19
2023-04-05T00:03:48.086Z,1025.31
2023-04-05T00:06:14.836Z,1025.22
2023-04-05T00:08:41.579Z,1025.10
2023-04-05T00:11:08.327Z,1025.17
2023-04-05T00:13:36.410Z,1025.07
2023-04-05T00:16:03.171Z,1025.07
2023-04-05T00:18:29.979Z,1025.00
2023-04-05T00:20:56.721Z,1025.07
2023-04-05T00:23:23.433Z,1025.09
2023-04-05T00:25:50.174Z,1025.35
2023-04-05T00:28:17.093Z,1025.37
2023-04-05T00:30:45.268Z,1025.48
2023-04-05T00:33:12.627Z,1025.52
2023-04-05T00:35:39.455Z,1025.22
2023-04-05T00:38:06.219Z,1025.26
2023-04-05T00:40:32.938Z,1025.24
2023-04-05T00:42:59.748Z,1025.18
2023-04-05T00:45:26.800Z,1025.17
2023-04-05T00:47:55.831Z,1025.13
2023-04-05T00:50:22.680Z,1025.22
2023-04-05T00:52:50.517Z,1025.07
2023-04-05T00:55:17.891Z,1025.13
2023-04-05T00:57:44.691Z,1025.03
2023-04-05T01:00:12.323Z,1025.17
2023-04-05T01:02:48.781Z,1025.18
2023-04-05T01:05:34.782Z,1025.15
2023-04-05T01:08:12.056Z,1025.15
2023-04-05T01:10:43.070Z,1025.23
2023-04-05T01:13:10.002Z,1025.12
2023-04-05T01:15:36.874Z,1025.04
2023-04-05T01:18:04.261Z,1025.08
2023-04-05T01:20:37.607Z,1025.09
2023-04-05T01:23:37.906Z,1025.06
2023-04-05T01:26:29.342Z,1025.09
2023-04-05T01:29:05.945Z,1025.04
2023-04-05T01:31:41.292Z,1025.08
2023-04-05T01:34:17.063Z,1025.14
2023-04-05T01:36:47.456Z,1025.13
2023-04-05T01:39:17.255Z,1025.15
2023-04-05T01:41:44.101Z,1025.19
2023-04-05T01:44:10.937Z,1025.16
2023-04-05T01:46:39.112Z,1025.09
2023-04-05T01:49:05.980Z,1025.04
2023-04-05T01:51:33.287Z,1025.08
2023-04-05T01:54:00.255Z,1025.06
2023-04-05T01:56:27.053Z,1025.02
2023-04-05T01:58:53.811Z,1025.00
2023-04-05T02:01:20.690Z,1025.02
2023-04-05T02:03:48.920Z,1024.99
2023-04-05T02:06:15.832Z,1025.01
2023-04-05T02:08:42.630Z,1024.95
2023-04-05T02:11:09.576Z,1024.92
2023-04-05T02:13:36.378Z,1024.93
2023-04-05T02:16:03.296Z,1024.96
2023-04-05T02:18:30.189Z,1025.00
2023-04-05T02:21:03.426Z,1024.96
2023-04-05T02:23:31.612Z,1024.98
2023-04-05T02:25:59.019Z,1024.99
2023-04-05T02:28:25.887Z,1025.04
2023-04-05T02:30:52.765Z,1025.09
2023-04-05T02:33:19.861Z,1025.13
2023-04-05T02:35:49.536Z,1025.19
2023-04-05T02:38:17.962Z,1024.99
2023-04-05T02:40:46.860Z,1025.14
2023-04-05T02:43:13.668Z,1025.09
2023-04-05T02:45:40.433Z,1025.10
2023-04-05T02:48:07.378Z,1025.10
2023-04-05T02:50:34.194Z,1025.07
2023-04-05T02:53:00.941Z,1025.07
2023-04-05T02:55:29.048Z,1025.12
2023-04-05T02:57:58.920Z,1025.09
2023-04-05T03:00:25.640Z,1025.14
2023-04-05T03:02:52.399Z,1025.17
2023-04-05T03:05:19.130Z,1025.06
2023-04-05T03:07:45.877Z,1025.03
2023-04-05T03:10:13.826Z,1025.04
2023-04-05T03:12:41.927Z,1025.06
2023-04-05T03:15:09.625Z,1025.11
2023-04-05T03:17:36.374Z,1025.04
2023-04-05T03:20:03.375Z,1025.05
2023-04-05T03:22:30.096Z,1025.07
2023-04-05T03:24:56.873Z,1025.12
2023-04-05T03:27:23.708Z,1025.12
2023-04-05T03:29:51.898Z,1025.01
2023-04-05T03:32:18.696Z,1025.02
2023-04-05T03:34:45.725Z,1025.04
2023-04-05T03:37:12.557Z,1025.03
2023-04-05T03:39:39.360Z,1025.05
2023-04-05T03:42:06.121Z,1025.00
2023-04-05T03:44:32.928Z,1024.97
2023-04-05T03:47:01.056Z,1024.98
2023-04-05T03:49:27.833Z,1024.94
2023-04-05T03:51:54.576Z,1025.00
2023-04-05T03:54:21.304Z,1024.95
2023-04-05T03:56:48.083Z,1024.95
2023-04-05T03:59:14.990Z,1024.92
2023-04-05T04:01:41.782Z,1024.95
2023-04-05T04:04:09.983Z,1024.95
2023-04-05T04:06:36.762Z,1025.00
2023-04-05T04:09:03.735Z,1025.00
2023-04-05T04:11:30.578Z,1024.97
2023-04-05T04:13:57.428Z,1024.93
2023-04-05T04:16:25.131Z,1024.98
2023-04-05T04:18:52.913Z,1024.98
2023-04-05T04:21:21.034Z,1025.04
2023-04-05T04:23:47.838Z,1024.95
2023-04-05T04:26:14.586Z,1025.04
2023-04-05T04:28:41.319Z,1025.14
2023-04-05T04:31:12.093Z,1025.08
2023-04-05T04:33:38.937Z,1025.14
2023-04-05T04:36:08.075Z,1025.19
2023-04-05T04:38:36.317Z,1025.10
2023-04-05T04:41:06.773Z,1025.06
2023-04-05T04:43:33.531Z,1025.12
2023-04-05T04:46:00.558Z,1025.02
2023-04-05T04:48:27.272Z,1025.05
2023-04-05T04:50:54.012Z,1025.04
2023-04-05T04:53:22.791Z,1025.08
2023-04-05T04:55:52.212Z,1025.01
2023-04-05T04:58:18.974Z,1025.02
2023-04-05T05:00:45.902Z,1024.94
2023-04-05T05:03:13.402Z,1025.03
2023-04-05T05:05:43.975Z,1024.87
2023-04-05T05:08:10.749Z,1024.93
2023-04-05T05:10:37.652Z,1024.83
2023-04-05T05:13:05.864Z,1024.87
2023-04-05T05:15:32.658Z,1025.02
2023-04-05T05:18:02.197Z,1025.03
2023-04-05T05:20:28.993Z,1024.91
2023-04-05T05:22:56.021Z,1024.92
2023-04-05T05:25:22.754Z,1024.94
2023-04-05T05:27:49.960Z,1024.96
2023-04-05T05:30:18.610Z,1024.92
2023-04-05T05:32:45.436Z,1024.94
2023-04-05T05:35:12.332Z,1024.98
2023-04-05T05:37:39.613Z,1024.99
2023-04-05T05:40:07.770Z,1024.96
2023-04-05T05:42:38.058Z,1024.99
2023-04-05T05:45:18.650Z,1025.00
2023-04-05T05:47:56.191Z,1024.92
2023-04-05T05:50:46.412Z,1024.96
2023-04-05T05:56:31.223Z,1025.01
2023-04-05T05:59:41.637Z,1025.01
2023-04-05T06:05:33.515Z,1024.79
2023-04-05T06:08:22.851Z,1024.32
2023-04-05T06:17:17.192Z,1022.96
2023-04-05T06:19:44.222Z,1022.78
2023-04-05T06:22:12.634Z,1022.69
2023-04-05T06:24:39.756Z,1022.65
2023-04-05T06:27:06.504Z,1022.54
2023-04-05T06:29:33.336Z,1022.40
2023-04-05T06:32:00.254Z,1022.16
2023-04-05T06:34:27.198Z,1022.01
2023-04-05T06:36:53.965Z,1021.74
2023-04-05T06:39:22.171Z,1021.63
2023-04-05T06:41:49.022Z,1021.53
2023-04-05T06:44:15.833Z,1021.37
2023-04-05T06:46:42.603Z,1021.33
2023-04-05T06:49:09.321Z,1021.13
2023-04-05T06:51:36.360Z,1021.02
2023-04-05T06:54:03.496Z,1020.92
2023-04-05T06:56:31.612Z,1020.77
2023-04-05T06:58:58.344Z,1020.66
2023-04-05T07:01:25.195Z,1020.53
2023-04-05T07:03:52.989Z,1020.61
2023-04-05T07:06:19.784Z,1020.58
2023-04-05T07:08:46.648Z,1020.65
2023-04-05T07:11:13.712Z,1020.52
2023-04-05T07:13:41.896Z,1020.52
2023-04-05T07:16:08.701Z,1020.48
2023-04-05T07:18:35.511Z,1020.44
2023-04-05T07:21:02.341Z,1020.44
2023-04-05T07:23:29.659Z,1020.31
2023-04-05T07:26:01.552Z,1020.28
2023-04-05T07:28:28.335Z,1020.26
2023-04-05T07:30:56.603Z,1020.13
2023-04-05T07:33:23.319Z,1020.17
2023-04-05T07:35:52.937Z,1020.24
2023-04-05T07:38:19.718Z,1020.17
2023-04-05T07:40:48.486Z,1020.26
2023-04-05T07:43:15.254Z,1020.14
2023-04-05T07:45:42.221Z,1020.08
2023-04-05T07:48:10.416Z,1020.04
2023-04-05T07:50:37.283Z,1019.89
2023-04-05T07:53:04.059Z,1019.82
2023-04-05T07:55:30.862Z,1019.88
2023-04-05T07:57:57.698Z,1019.80
2023-04-05T08:00:24.589Z,1019.67
2023-04-05T08:02:51.486Z,1019.58
2023-04-05T08:05:19.785Z,1019.62
2023-04-05T08:07:46.586Z,1019.64
2023-04-05T08:10:13.322Z,1019.57
2023-04-05T08:12:40.089Z,1019.63
2023-04-05T08:15:07.765Z,1019.56
2023-04-05T08:17:34.770Z,1019.58
2023-04-05T08:20:01.789Z,1019.71
2023-04-05T08:22:29.901Z,1019.66
2023-04-05T08:24:56.723Z,1019.90
2023-04-05T08:27:23.620Z,1019.62
2023-04-05T08:29:50.567Z,1019.79
2023-04-05T08:32:17.428Z,1019.96
2023-04-05T08:34:44.223Z,1019.81
2023-04-05T08:37:10.977Z,1019.65
2023-04-05T08:39:39.181Z,1019.46
2023-04-05T08:42:13.735Z,1019.29
2023-04-05T08:44:41.435Z,1019.22
2023-04-05T08:47:10.136Z,1019.26
2023-04-05T08:49:37.258Z,1019.14
2023-04-05T08:52:05.733Z,1019.09
2023-04-05T08:54:32.506Z,1018.99
2023-04-05T08:57:03.431Z,1019.30
2023-04-05T08:59:30.313Z,1019.33
2023-04-05T09:01:57.567Z,1019.57
2023-04-05T09:04:29.360Z,1019.49
2023-04-05T09:06:58.710Z,1019.41
2023-04-05T09:09:25.680Z,1019.26
2023-04-05T09:11:53.328Z,1019.43
2023-04-05T09:14:22.354Z,1019.21
2023-04-05T09:16:49.180Z,1019.07
2023-04-05T09:19:16.147Z,1018.83
2023-04-05T09:21:58.104Z,1018.78
2023-04-05T09:24:30.897Z,1019.23
2023-04-05T09:27:04.923Z,1018.95
2023-04-05T09:29:33.345Z,1018.78
2023-04-05T09:32:01.488Z,1019.21
2023-04-05T09:34:30.190Z,1018.84
2023-04-05T09:36:57.347Z,1018.93
2023-04-05T09:39:28.671Z,1018.86
2023-04-05T09:42:06.508Z,1018.75
2023-04-05T09:44:59.453Z,1019.02
2023-04-05T09:47:28.064Z,1018.71
2023-04-05T09:49:54.932Z,1018.49
2023-04-05T09:52:23.780Z,1018.49
2023-04-05T09:54:53.409Z,1018.30
2023-04-05T09:57:20.327Z,1018.26
2023-04-05T09:59:47.146Z,1018.19
2023-04-05T10:02:16.117Z,1018.24
2023-04-05T10:04:44.565Z,1018.10
2023-04-05T10:07:13.152Z,1018.10
2023-04-05T10:09:40.602Z,1018.01
2023-04-05T10:12:08.324Z,1017.93
2023-04-05T10:14:35.545Z,1017.83
2023-04-05T10:17:09.334Z,1017.63
2023-04-05T10:19:50.880Z,1017.65
2023-04-05T10:22:23.608Z,1017.46
2023-04-05T10:24:54.280Z,1017.31
2023-04-05T10:27:27.057Z,1017.84
2023-04-05T10:30:04.473Z,1017.59
2023-04-05T10:32:41.380Z,1017.51
2023-04-05T10:35:16.944Z,1017.33
2023-04-05T10:37:59.314Z,1017.84
2023-04-05T10:40:29.458Z,1017.73
2023-04-05T10:42:56.262Z,1017.62
2023-04-05T10:45:25.290Z,1017.41
2023-04-05T10:47:57.962Z,1017.27
2023-04-05T10:50:26.298Z,1017.81
2023-04-05T10:52:53.366Z,1017.59
2023-04-05T10:55:20.635Z,1017.32
2023-04-05T10:57:49.142Z,1017.08
2023-04-05T11:00:17.784Z,1017.01
2023-04-05T11:02:45.032Z,1016.94
2023-04-05T11:05:33.636Z,1017.16
2023-04-05T11:08:04.362Z,1016.95
2023-04-05T11:10:33.817Z,1016.71
2023-04-05T11:13:10.804Z,1016.83
2023-04-05T11:15:38.178Z,1016.66
2023-04-05T11:18:07.271Z,1016.55
2023-04-05T11:20:43.755Z,1016.58
2023-04-05T11:23:11.912Z,1016.47
2023-04-05T11:25:39.722Z,1016.36
2023-04-05T11:28:07.088Z,1016.32
2023-04-05T11:30:46.939Z,1016.35
2023-04-05T11:33:36.707Z,1016.14
2023-04-05T11:36:05.859Z,1016.08
2023-04-05T11:38:32.829Z,1016.10
2023-04-05T11:41:07.370Z,1016.07
2023-04-05T11:43:34.318Z,1016.11
2023-04-05T11:46:03.240Z,1016.14
2023-04-05T11:48:30.153Z,1016.31
2023-04-05T11:50:57.582Z,1016.68
2023-04-05T11:53:26.077Z,1016.76
2023-04-05T11:55:53.088Z,1016.46
2023-04-05T11:58:22.157Z,1016.51
2023-04-05T12:00:58.190Z,1016.45
2023-04-05T12:03:26.323Z,1016.29
2023-04-05T12:05:54.631Z,1016.21
2023-04-05T12:08:22.668Z,1016.05
2023-04-05T12:10:59.963Z,1016.02
2023-04-05T12:13:28.130Z,1016.05
2023-04-05T12:15:58.151Z,1015.95
2023-04-05T12:18:25.942Z,1016.02
2023-04-05T12:20:53.117Z,1015.89
2023-04-05T12:23:20.454Z,1015.83
2023-04-05T12:25:47.942Z,1015.84
2023-04-05T12:28:16.434Z,1015.81
2023-04-05T12:30:49.996Z,1015.62
2023-04-05T12:33:26.571Z,1015.73
2023-04-05T12:35:53.591Z,1015.60
2023-04-05T12:38:20.797Z,1015.69
2023-04-05T12:40:47.706Z,1015.71
2023-04-05T12:43:15.943Z,1015.74
2023-04-05T12:45:43.006Z,1015.66
2023-04-05T12:48:13.251Z,1015.51
2023-04-05T12:50:43.554Z,1015.44
2023-04-05T12:53:16.155Z,1015.57
2023-04-05T12:55:47.954Z,1015.55
2023-04-05T12:58:16.862Z,1015.57
2023-04-05T13:00:44.041Z,1015.47
2023-04-05T13:03:16.342Z,1015.58
2023-04-05T13:05:43.572Z,1015.46
2023-04-05T13:08:10.937Z,1015.50
2023-04-05T13:10:38.050Z,1015.45
2023-04-05T13:13:05.167Z,1015.41
2023-04-05T13:15:33.559Z,1015.46
2023-04-05T13:18:00.586Z,1015.42
2023-04-05T13:20:27.773Z,1015.45
2023-04-05T13:22:54.737Z,1015.49
2023-04-05T13:25:21.734Z,1015.48
2023-04-05T13:27:49.097Z,1015.50
2023-04-05T13:30:16.544Z,1015.37
2023-04-05T13:32:45.060Z,1015.34
2023-04-05T13:35:12.293Z,1015.52
2023-04-05T13:37:39.221Z,1015.59
2023-04-05T13:40:07.630Z,1015.59
2023-04-05T13:42:34.623Z,1015.51
2023-04-05T13:45:01.529Z,1015.59
2023-04-05T13:47:28.503Z,1015.58
2023-04-05T13:49:56.869Z,1015.53
2023-04-05T13:52:23.953Z,1015.53
2023-04-05T13:55:02.161Z,1015.63
2023-04-05T13:57:31.264Z,1015.68
2023-04-05T13:59:58.312Z,1015.55
2023-04-05T14:02:26.119Z,1015.53
2023-04-05T14:04:53.414Z,1015.52
2023-04-05T14:07:22.447Z,1015.34
2023-04-05T14:09:49.322Z,1015.41
2023-04-05T14:12:16.306Z,1015.48
2023-04-05T14:14:43.604Z,1015.43
2023-04-05T14:17:10.797Z,1015.48
2023-04-05T14:19:37.854Z,1015.40
2023-04-05T14:22:05.342Z,1015.50
2023-04-05T14:24:33.811Z,1015.42
2023-04-05T14:27:01.160Z,1015.43
2023-04-05T14:29:28.419Z,1015.55
2023-04-05T14:31:55.830Z,1015.49
2023-04-05T14:34:22.984Z,1015.55
2023-04-05T14:36:49.964Z,1015.67
2023-04-05T14:39:17.242Z,1015.62
2023-04-05T14:41:45.782Z,1015.65
2023-04-05T14:44:12.804Z,1015.66
2023-04-05T14:46:39.780Z,1015.69
2023-04-05T14:49:06.801Z,1015.62
2023-04-05T14:51:33.834Z,1015.70
2023-04-05T14:54:00.900Z,1015.71
2023-04-05T14:56:28.064Z,1015.63
2023-04-05T14:58:56.548Z,1015.63
2023-04-05T15:01:23.683Z,1015.70
2023-04-05T15:03:52.532Z,1015.55
2023-04-05T15:06:20.610Z,1015.78
2023-04-05T15:08:47.771Z,1015.79
2023-04-05T15:11:15.019Z,1015.86
2023-04-05T15:13:42.204Z,1015.75
2023-04-05T15:16:10.907Z,1015.84
2023-04-05T15:18:37.937Z,1015.85
2023-04-05T15:21:05.469Z,1015.90
2023-04-05T15:23:32.380Z,1015.98
2023-04-05T15:25:59.166Z,1015.92
2023-04-05T15:28:26.031Z,1015.96
2023-04-05T15:30:52.913Z,1015.93
2023-04-05T15:33:21.119Z,1015.90
2023-04-05T15:35:48.058Z,1015.99
2023-04-05T15:38:15.700Z,1015.97
2023-04-05T15:40:42.608Z,1016.09
2023-04-05T15:43:10.005Z,1016.17
2023-04-05T15:45:36.897Z,1016.10
2023-04-05T15:48:03.908Z,1016.14
2023-04-05T15:50:32.126Z,1016.21
2023-04-05T15:52:59.018Z,1016.28
2023-04-05T15:55:25.844Z,1016.28
2023-04-05T15:57:52.653Z,1016.30
2023-04-05T16:00:20.146Z,1016.36
2023-04-05T16:02:47.040Z,1016.39
2023-04-05T16:05:14.408Z,1016.50
2023-04-05T16:07:42.632Z,1016.66
2023-04-05T16:10:10.684Z,1016.62
2023-04-05T16:12:37.729Z,1016.66
2023-04-05T16:15:05.223Z,1016.60
2023-04-05T16:17:32.094Z,1016.67
2023-04-05T16:19:58.925Z,1016.63
2023-04-05T16:22:26.129Z,1016.68
2023-04-05T16:24:54.367Z,1016.72
2023-04-05T16:27:21.552Z,1016.77
2023-04-05T16:29:48.336Z,1016.75
2023-04-05T16:32:15.330Z,1016.86
2023-04-05T16:34:42.192Z,1016.84
2023-04-05T16:37:08.995Z,1016.89
2023-04-05T16:39:35.886Z,1016.96
2023-04-05T16:42:04.474Z,1017.07
2023-04-05T16:44:32.278Z,1017.10
2023-04-05T16:46:59.236Z,1017.10
2023-04-05T16:49:26.180Z,1017.22
2023-04-05T16:51:53.520Z,1017.24
2023-04-05T16:54:20.474Z,1017.22
2023-04-05T16:56:47.252Z,1017.29
2023-04-05T16:59:15.617Z,1017.34
2023-04-05T17:01:42.571Z,1017.53
2023-04-05T17:04:09.460Z,1017.49
2023-04-05T17:06:36.320Z,1017.59
2023-04-05T17:09:03.848Z,1017.71
2023-04-05T17:11:31.083Z,1017.73
2023-04-05T17:13:57.904Z,1017.71
2023-04-05T17:16:26.313Z,1017.76
2023-04-05T17:18:53.360Z,1017.83
2023-04-05T17:21:20.245Z,1018.00
2023-04-05T17:23:47.068Z,1018.06
2023-04-05T17:26:14.016Z,1018.12
2023-04-05T17:28:40.804Z,1018.25
2023-04-05T17:31:08.154Z,1018.41
2023-04-05T17:33:36.509Z,1018.43
2023-04-05T17:36:03.405Z,1018.57
2023-04-05T17:38:30.231Z,1018.64
2023-04-05T17:40:57.019Z,1018.68
2023-04-05T17:43:23.932Z,1018.76
2023-04-05T17:45:50.977Z,1018.79
2023-04-05T17:48:18.044Z,1018.86
2023-04-05T17:50:46.481Z,1019.04
2023-04-05T17:53:14.877Z,1019.04
2023-04-05T17:55:41.887Z,1019.08
2023-04-05T17:58:08.771Z,1019.19
2023-04-05T18:00:35.558Z,1019.37
2023-04-05T18:03:07.441Z,1019.41
2023-04-05T18:05:34.989Z,1019.43
2023-04-05T18:08:03.259Z,1019.61
2023-04-05T18:10:30.215Z,1019.62
2023-04-05T18:12:57.068Z,1019.66
2023-04-05T18:15:23.911Z,1019.74
2023-04-05T18:17:50.835Z,1019.92
2023-04-05T18:20:17.881Z,1020.03
2023-04-05T18:22:44.715Z,1020.09
2023-04-05T18:25:13.054Z,1020.07
2023-04-05T18:27:40.100Z,1019.99
2023-04-05T18:30:08.202Z,1020.20
2023-04-05T18:32:35.094Z,1020.13
2023-04-05T18:35:02.137Z,1020.26
2023-04-05T18:37:28.949Z,1020.25
2023-04-05T18:39:55.770Z,1020.40
2023-04-05T18:42:24.083Z,1020.47
2023-04-05T18:44:50.884Z,1020.57
2023-04-05T18:47:17.783Z,1020.55
2023-04-05T18:49:44.617Z,1020.62
2023-04-05T18:52:11.457Z,1020.73
2023-04-05T18:54:39.922Z,1020.83
2023-04-05T18:57:07.158Z,1020.92
2023-04-05T18:59:35.395Z,1020.95
2023-04-05T19:02:02.368Z,1020.89
2023-04-05T19:04:29.273Z,1020.99
2023-04-05T19:06:56.297Z,1021.14
2023-04-05T19:09:23.180Z,1021.24
2023-04-05T19:11:50.065Z,1021.44
2023-04-05T19:14:17.156Z,1021.44
2023-04-05T19:16:45.570Z,1021.56
2023-04-05T19:19:12.500Z,1021.63
2023-04-05T19:21:39.317Z,1021.76
2023-04-05T19:24:06.377Z,1021.76
2023-04-05T19:26:33.357Z,1021.86
2023-04-05T19:29:00.233Z,1021.91
2023-04-05T19:31:27.173Z,1021.77
2023-04-05T19:33:55.400Z,1021.95
2023-04-05T19:36:22.300Z,1022.06
2023-04-05T19:38:49.144Z,1022.11
2023-04-05T19:41:16.135Z,1022.05
2023-04-05T19:43:42.971Z,1021.97
2023-04-05T19:46:09.903Z,1022.11
2023-04-05T19:48:38.600Z,1022.20
2023-04-05T19:51:07.771Z,1022.03
2023-04-05T19:53:42.873Z,1022.12
2023-04-05T19:56:15.771Z,1022.36
2023-04-05T19:58:42.957Z,1022.41
2023-04-05T20:01:09.960Z,1022.51
2023-04-05T20:03:44.236Z,1022.61
2023-04-05T20:06:15.683Z,1022.60
2023-04-05T20:08:45.350Z,1022.61
2023-04-05T20:11:14.183Z,1022.68
2023-04-05T20:13:43.466Z,1022.72
2023-04-05T20:16:11.969Z,1022.81
2023-04-05T20:18:38.919Z,1022.84
2023-04-05T20:21:06.097Z,1022.71
2023-04-05T20:23:38.452Z,1022.83
2023-04-05T20:26:07.248Z,1022.80
2023-04-05T20:28:38.459Z,1022.81
2023-04-05T20:31:07.115Z,1022.85
2023-04-05T20:33:48.527Z,1022.96
2023-04-05T20:36:18.488Z,1022.95
2023-04-05T20:38:48.245Z,1022.90
2023-04-05T20:41:16.866Z,1022.67
2023-04-05T20:43:43.937Z,1022.75
2023-04-05T20:46:10.823Z,1022.71
2023-04-05T20:48:37.626Z,1022.84
2023-04-05T20:51:06.006Z,1022.76
2023-04-05T20:53:32.869Z,1022.80
2023-04-05T20:56:01.108Z,1022.86
2023-04-05T20:58:28.051Z,1022.83
2023-04-05T21:00:55.148Z,1022.87
2023-04-05T21:03:22.049Z,1022.87
2023-04-05T21:05:48.953Z,1022.93
2023-04-05T21:08:15.876Z,1022.95
2023-04-05T21:10:42.692Z,1023.09
2023-04-05T21:13:10.963Z,1023.15
2023-04-05T21:15:37.798Z,1023.16
2023-04-05T21:18:05.352Z,1023.27
2023-04-05T21:20:32.228Z,1023.40
2023-04-05T21:22:59.321Z,1023.45
2023-04-05T21:25:26.180Z,1023.41
2023-04-05T21:27:53.344Z,1023.45
2023-04-05T21:30:21.553Z,1023.28
2023-04-05T21:32:48.434Z,1023.34
2023-04-05T21:35:15.327Z,1023.60
2023-04-05T21:37:42.192Z,1023.58
2023-04-05T21:40:09.879Z,1023.53
2023-04-05T21:42:36.710Z,1023.40
2023-04-05T21:45:04.025Z,1023.50
2023-04-05T21:47:32.302Z,1023.44
2023-04-05T21:49:59.147Z,1023.45
2023-04-05T21:52:26.032Z,1023.42
2023-04-05T21:54:52.833Z,1023.46
2023-04-05T21:57:19.653Z,1023.50
2023-04-05T21:59:46.521Z,1023.80
2023-04-05T22:02:13.401Z,1023.78
2023-04-05T22:04:41.701Z,1023.72
2023-04-05T22:07:08.569Z,1023.78
2023-04-05T22:09:35.448Z,1023.77
2023-04-05T22:12:02.318Z,1023.78
2023-04-05T22:14:29.250Z,1023.65
2023-04-05T22:16:56.210Z,1023.79
2023-04-05T22:19:23.521Z,1023.81
2023-04-05T22:21:51.806Z,1023.88
2023-04-05T22:24:18.602Z,1023.88
2023-04-05T22:26:45.525Z,1023.94
2023-04-05T22:29:12.737Z,1023.95
2023-04-05T22:31:39.590Z,1023.95
2023-04-05T22:34:06.418Z,1023.89
2023-04-05T22:36:33.226Z,1023.91
2023-04-05T22:39:01.517Z,1024.06
2023-04-05T22:41:28.303Z,1024.06
2023-04-05T22:43:55.136Z,1024.02
2023-04-05T22:46:22.002Z,1024.02
2023-04-05T22:48:49.027Z,1024.07
2023-04-05T22:51:15.825Z,1024.08
2023-04-05T22:53:42.641Z,1024.13
2023-04-05T22:56:10.839Z,1024.13
2023-04-05T22:58:37.647Z,1024.23
2023-04-05T23:01:04.571Z,1024.17
2023-04-05T23:03:31.488Z,1024.23
2023-04-05T23:05:58.313Z,1024.21
2023-04-05T23:08:25.263Z,1024.13
2023-04-05T23:10:52.133Z,1024.28
2023-04-05T23:13:20.757Z,1024.28
2023-04-05T23:15:47.665Z,1024.38
2023-04-05T23:18:14.483Z,1024.33
2023-04-05T23:20:41.325Z,1024.37
2023-04-05T23:23:08.116Z,1024.42
2023-04-05T23:25:34.914Z,1024.39
2023-04-05T23:28:01.727Z,1024.42
2023-04-05T23:30:29.915Z,1024.41
2023-04-05T23:32:56.809Z,1024.44
2023-04-05T23:35:23.664Z,1024.41
2023-04-05T23:37:50.617Z,1024.51
2023-04-05T23:40:17.598Z,1024.40
2023-04-05T23:42:44.395Z,1024.46
2023-04-05T23:45:11.611Z,1024.33
2023-04-05T23:47:39.948Z,1024.34
2023-04-05T23:50:08.556Z,1024.38
2023-04-05T23:52:35.357Z,1024.39
2023-04-05T23:55:02.310Z,1024.35
2023-04-05T23:57:29.182Z,1024.35
2023-04-05T23:59:56.035Z,1024.37
